Time;durP1;ratioP1;P1;durP2;ratioP2;P2;SDS_P1;SDS_P2;PMS_P1;PMS_P2;Temp;Humidity;BMP_temperature;BMP_pressure;BME280_temperature;BME280_humidity;BME280_pressure;Samples;Min_cycle;Max_cycle;Signal;HPM_P1;HPM_P2
2023/03/04 00:01:21;;;;;;;;;51.25;42.50;;;;;6.42;100.00;102397.72;5099133;27;45483;-74
2023/03/04 00:03:46;;;;;;;;;72.00;54.50;;;;;6.38;100.00;102420.44;5105196;27;46126;-74
2023/03/04 00:06:12;;;;;;;;;68.75;51.00;;;;;6.20;100.00;102389.91;5099287;27;46278;-74
2023/03/04 00:08:37;;;;;;;;;60.75;49.00;;;;;6.43;100.00;102415.69;5098688;27;45309;-73
2023/03/04 00:11:02;;;;;;;;;64.75;50.25;;;;;6.43;100.00;102426.47;5093664;27;45317;-74
2023/03/04 00:13:28;;;;;;;;;60.75;43.75;;;;;6.21;100.00;102395.19;5099605;27;45571;-74
2023/03/04 00:15:53;;;;;;;;;55.00;44.50;;;;;6.30;100.00;102414.56;5100373;27;47703;-74
2023/03/04 00:18:20;;;;;;;;;70.50;52.00;;;;;6.17;100.00;102387.34;5100930;27;45395;-74
2023/03/04 00:20:45;;;;;;;;;70.50;55.75;;;;;6.13;100.00;102420.84;5103305;27;45420;-73
2023/03/04 00:23:10;;;;;;;;;70.50;51.50;;;;;6.03;100.00;102406.06;5104864;27;45380;-74
2023/03/04 00:25:36;;;;;;;;;70.25;52.25;;;;;6.08;100.00;102431.88;5104341;27;45388;-74
2023/03/04 00:28:01;;;;;;;;;70.50;53.25;;;;;5.96;100.00;102397.44;5103902;27;45484;-74
2023/03/04 00:30:27;;;;;;;;;65.00;49.50;;;;;6.02;100.00;102423.22;5098794;27;45261;-74
2023/03/04 00:32:52;;;;;;;;;65.00;52.75;;;;;5.96;100.00;102419.00;5100576;27;46027;-74
2023/03/04 00:35:17;;;;;;;;;75.50;56.00;;;;;5.99;100.00;102426.09;5100575;27;45496;-74
2023/03/04 00:37:43;;;;;;;;;70.00;54.00;;;;;5.90;100.00;102411.22;5100949;27;45731;-74
2023/03/04 00:40:09;;;;;;;;;76.00;57.25;;;;;5.83;100.00;102426.81;5101014;27;45251;-74
2023/03/04 00:42:34;;;;;;;;;76.75;58.25;;;;;5.79;100.00;102413.56;5101507;27;45577;-74
2023/03/04 00:44:59;;;;;;;;;75.50;50.75;;;;;5.79;100.00;102429.72;5103475;27;46324;-74
2023/03/04 00:47:25;;;;;;;;;73.25;57.75;;;;;5.90;100.00;102437.34;5104706;27;45634;-74
2023/03/04 00:49:50;;;;;;;;;70.50;53.75;;;;;5.95;100.00;102446.06;5101553;27;45371;-74
2023/03/04 00:52:16;;;;;;;;;75.00;55.50;;;;;5.79;100.00;102413.56;5098251;27;47395;-73
2023/03/04 00:54:41;;;;;;;;;64.00;52.50;;;;;5.88;100.00;102423.91;5099198;27;48210;-74
2023/03/04 00:57:06;;;;;;;;;67.25;51.00;;;;;5.81;100.00;102431.41;5096197;27;45463;-74
2023/03/04 00:59:32;;;;;;;;;73.00;55.25;;;;;5.76;100.00;102419.13;5093409;27;45463;-74
2023/03/04 01:01:57;;;;;;;;;75.50;56.25;;;;;5.74;100.00;102432.66;5101567;27;45664;-74
2023/03/04 01:04:22;;;;;;;;;68.50;53.50;;;;;5.78;100.00;102433.38;5099209;27;45571;-74
2023/03/04 01:06:48;;;;;;;;;68.75;53.50;;;;;5.84;100.00;102444.72;5104622;27;45459;-74
2023/03/04 01:09:13;;;;;;;;;70.00;54.50;;;;;5.83;100.00;102451.09;5102385;27;45373;-74
2023/03/04 01:11:38;;;;;;;;;75.75;54.75;;;;;5.73;100.00;102448.91;5101482;27;45432;-74
2023/03/04 01:14:04;;;;;;;;;71.75;55.00;;;;;5.74;100.00;102434.50;5098609;27;48385;-74
2023/03/04 01:16:29;;;;;;;;;69.50;53.50;;;;;5.61;100.00;102412.66;5104839;27;45554;-74
2023/03/04 01:18:55;;;;;;;;;72.00;57.75;;;;;5.68;100.00;102418.63;5094706;27;45164;-74
2023/03/04 01:21:20;;;;;;;;;77.25;58.00;;;;;5.70;100.00;102432.88;5098234;27;45380;-73
2023/03/04 01:23:46;;;;;;;;;69.75;50.50;;;;;5.66;100.00;102432.19;5101862;27;45215;-74
2023/03/04 01:26:11;;;;;;;;;75.25;57.00;;;;;5.65;100.00;102443.03;5097987;27;45375;-74
2023/03/04 01:28:36;;;;;;;;;67.00;55.25;;;;;5.58;100.00;102430.81;5100282;27;45391;-74
2023/03/04 01:31:03;;;;;;;;;75.00;57.50;;;;;5.48;100.00;102414.19;5096630;27;45289;-74
2023/03/04 01:33:29;;;;;;;;;67.75;51.25;;;;;5.60;100.00;102418.13;5103342;27;47355;-74
2023/03/04 01:35:54;;;;;;;;;75.50;57.00;;;;;5.52;100.00;102412.22;5101847;27;45379;-74
2023/03/04 01:38:20;;;;;;;;;77.50;59.50;;;;;5.58;100.00;102422.72;5103832;27;45395;-74
2023/03/04 01:40:45;;;;;;;;;85.00;65.00;;;;;5.55;100.00;102420.19;5095184;27;45419;-73
2023/03/04 01:43:19;;;;;;;;;76.50;61.25;;;;;5.43;100.00;102398.25;5095497;27;47802;-74
2023/03/04 01:45:46;;;;;;;;;76.75;58.00;;;;;5.56;100.00;102412.00;5103462;27;45514;-74
2023/03/04 01:48:16;;;;;;;;;72.00;54.50;;;;;5.61;100.00;102419.88;5099169;27;45502;-74
2023/03/04 01:50:41;;;;;;;;;78.75;61.25;;;;;5.68;100.00;102426.72;5105162;27;45300;-73
2023/03/04 01:53:18;;;;;;;;;82.25;61.75;;;;;5.57;100.00;102412.88;5102111;27;46662;-73
2023/03/04 01:55:44;;;;;;;;;71.75;52.00;;;;;5.43;100.00;102409.03;5099812;27;45422;-73
2023/03/04 01:58:11;;;;;;;;;77.75;58.00;;;;;5.51;100.00;102407.78;5095997;27;45489;-73
2023/03/04 02:00:37;;;;;;;;;76.25;56.75;;;;;5.51;100.00;102408.66;5103690;27;45400;-73
2023/03/04 02:03:11;;;;;;;;;72.75;55.75;;;;;5.52;100.00;102387.97;5096408;27;47290;-73
2023/03/04 02:05:41;;;;;;;;;74.75;54.50;;;;;5.46;100.00;102390.03;5104264;27;45513;-73
2023/03/04 02:08:08;;;;;;;;;61.00;45.00;;;;;5.64;100.00;102409.78;5100731;27;45376;-73
2023/03/04 02:10:34;;;;;;;;;71.75;55.25;;;;;5.48;100.00;102371.94;5101166;27;45539;-73
2023/03/04 02:13:00;;;;;;;;;77.75;58.00;;;;;5.39;100.00;102375.13;5088857;27;45535;-73
2023/03/04 02:15:26;;;;;;;;;78.00;54.50;;;;;5.59;100.00;102400.19;5090684;27;45497;-74
2023/03/04 02:17:52;;;;;;;;;63.75;45.75;;;;;5.62;100.00;102400.06;5100508;27;45473;-74
2023/03/04 02:20:31;;;;;;;;;62.75;47.75;;;;;5.60;100.00;102410.03;5098961;27;45403;-73
2023/03/04 02:23:28;;;;;;;;;77.50;53.50;;;;;5.66;100.00;102407.03;5098095;27;45339;-73
2023/03/04 02:26:12;;;;;;;;;67.75;50.75;;;;;5.69;100.00;102413.16;5101963;27;45475;-73
2023/03/04 02:28:38;;;;;;;;;71.00;54.75;;;;;5.65;100.00;102416.94;5098568;27;45403;-73
2023/03/04 02:31:03;;;;;;;;;74.00;56.00;;;;;5.59;100.00;102398.38;5098485;27;45442;-73
2023/03/04 02:33:29;;;;;;;;;67.50;55.25;;;;;5.51;100.00;102402.41;5096014;27;46383;-73
2023/03/04 02:35:54;;;;;;;;;74.50;56.50;;;;;5.47;100.00;102402.56;5099025;27;45515;-73
2023/03/04 02:38:20;;;;;;;;;69.50;52.00;;;;;5.46;100.00;102405.34;5099029;27;46093;-73
2023/03/04 02:40:49;;;;;;;;;66.00;54.00;;;;;5.37;100.00;102405.78;5099142;27;45454;-73
2023/03/04 02:43:15;;;;;;;;;72.25;54.75;;;;;5.30;100.00;102394.41;5099268;27;46354;-73
2023/03/04 02:45:40;;;;;;;;;77.50;59.75;;;;;5.41;100.00;102402.84;5100687;27;45467;-73
2023/03/04 02:48:07;;;;;;;;;70.50;54.25;;;;;5.42;100.00;102396.50;5102184;27;46378;-73
2023/03/04 02:50:45;;;;;;;;;74.75;57.25;;;;;5.53;100.00;102403.22;5104289;27;45596;-73
2023/03/04 02:53:11;;;;;;;;;68.50;55.00;;;;;5.51;100.00;102397.00;5101423;27;47595;-74
2023/03/04 02:55:36;;;;;;;;;71.75;55.75;;;;;5.54;100.00;102402.25;5096412;27;45407;-73
2023/03/04 02:58:02;;;;;;;;;71.25;55.00;;;;;5.46;100.00;102392.72;5101559;27;45338;-73
2023/03/04 03:00:28;;;;;;;;;80.25;59.75;;;;;5.35;100.00;102373.50;5102969;27;45623;-73
2023/03/04 03:02:55;;;;;;;;;83.50;57.75;;;;;5.43;100.00;102397.38;5101448;27;47251;-73
2023/03/04 03:05:22;;;;;;;;;74.50;56.75;;;;;5.32;100.00;102368.28;5102724;27;45503;-73
2023/03/04 03:07:47;;;;;;;;;55.50;41.00;;;;;5.36;100.00;102361.78;5101426;27;45411;-73
2023/03/04 03:10:13;;;;;;;;;69.25;53.75;;;;;5.47;100.00;102382.81;5098288;27;45486;-73
2023/03/04 03:12:38;;;;;;;;;71.75;54.00;;;;;5.41;100.00;102369.63;5094453;27;48399;-73
2023/03/04 03:15:04;;;;;;;;;70.00;57.25;;;;;5.40;100.00;102367.91;5099410;27;45427;-73
2023/03/04 03:17:29;;;;;;;;;63.50;50.25;;;;;5.50;100.00;102374.56;5098732;27;45440;-73
2023/03/04 03:19:55;;;;;;;;;76.75;56.75;;;;;5.47;100.00;102364.81;5099812;27;45407;-73
2023/03/04 03:22:20;;;;;;;;;74.50;54.50;;;;;5.40;100.00;102365.22;5098133;27;46407;-73
2023/03/04 03:24:45;;;;;;;;;76.00;54.50;;;;;5.38;100.00;102364.41;5091859;27;45339;-73
2023/03/04 03:27:11;;;;;;;;;77.50;58.75;;;;;5.29;100.00;102365.72;5096822;27;45383;-73
2023/03/04 03:29:36;;;;;;;;;60.25;46.25;;;;;5.26;100.00;102352.38;5091698;27;45250;-73
2023/03/04 03:32:01;;;;;;;;;63.50;50.75;;;;;5.42;100.00;102376.75;5099395;27;45843;-73
2023/03/04 03:34:27;;;;;;;;;70.50;55.50;;;;;5.40;100.00;102374.16;5096872;27;45433;-73
2023/03/04 03:36:52;;;;;;;;;72.50;55.25;;;;;5.32;100.00;102370.09;5102307;27;45364;-73
2023/03/04 03:39:17;;;;;;;;;78.00;55.75;;;;;5.16;100.00;102352.94;5098097;27;45511;-73
2023/03/04 03:41:43;;;;;;;;;69.00;54.75;;;;;5.13;100.00;102347.66;5102219;27;45533;-73
2023/03/04 03:44:08;;;;;;;;;74.00;54.50;;;;;5.16;100.00;102369.97;5099146;27;45347;-73
2023/03/04 03:46:34;;;;;;;;;68.50;52.50;;;;;5.11;100.00;102372.03;5099045;27;47442;-73
2023/03/04 03:48:59;;;;;;;;;75.50;53.75;;;;;5.02;100.00;102361.69;5101677;27;45343;-73
2023/03/04 03:51:25;;;;;;;;;69.75;57.50;;;;;5.14;100.00;102387.16;5102032;27;46251;-73
2023/03/04 03:53:50;;;;;;;;;67.25;48.50;;;;;5.01;100.00;102368.00;5095089;27;45499;-73
2023/03/04 03:56:15;;;;;;;;;67.00;54.00;;;;;5.15;100.00;102375.44;5102641;27;45288;-73
2023/03/04 03:58:41;;;;;;;;;72.75;56.00;;;;;5.13;100.00;102370.09;5094573;27;45604;-73
2023/03/04 04:01:08;;;;;;;;;73.50;55.25;;;;;5.16;100.00;102369.97;5094746;27;49898;-73
2023/03/04 04:03:33;;;;;;;;;65.25;50.50;;;;;5.28;100.00;102390.91;5094158;27;45385;-73
2023/03/04 04:05:58;;;;;;;;;65.75;51.50;;;;;5.22;100.00;102375.06;5095882;27;45234;-73
2023/03/04 04:08:24;;;;;;;;;66.75;49.00;;;;;5.26;100.00;102392.81;5102990;27;45561;-73
2023/03/04 04:10:49;;;;;;;;;66.50;51.50;;;;;5.13;100.00;102370.09;5102423;27;48230;-73
2023/03/04 04:13:14;;;;;;;;;70.75;51.75;;;;;4.98;100.00;102349.28;5103540;27;45380;-73
2023/03/04 04:15:40;;;;;;;;;68.75;53.00;;;;;5.14;100.00;102388.03;5103957;27;45345;-73
2023/03/04 04:18:06;;;;;;;;;71.25;55.00;;;;;4.76;100.00;102340.47;5103683;27;45387;-73
2023/03/04 04:20:31;;;;;;;;;67.50;53.25;;;;;4.91;100.00;102375.63;5103257;27;45467;-73
2023/03/04 04:22:56;;;;;;;;;70.00;53.00;;;;;4.77;100.00;102379.94;5103126;27;45397;-73
2023/03/04 04:25:22;;;;;;;;;71.00;49.75;;;;;4.95;100.00;102397.94;5104779;27;45314;-73
2023/03/04 04:27:47;;;;;;;;;66.50;51.75;;;;;5.03;100.00;102391.25;5103896;27;45463;-73
2023/03/04 04:30:13;;;;;;;;;65.25;50.75;;;;;4.89;100.00;102374.88;5100773;27;46490;-73
2023/03/04 04:32:38;;;;;;;;;59.75;45.75;;;;;5.03;100.00;102390.38;5100126;27;45359;-73
2023/03/04 04:35:04;;;;;;;;;64.00;49.50;;;;;5.01;100.00;102386.88;5103811;27;45263;-73
2023/03/04 04:37:29;;;;;;;;;60.00;44.50;;;;;5.01;100.00;102392.25;5104896;27;45316;-73
2023/03/04 04:39:55;;;;;;;;;65.75;47.75;;;;;4.85;100.00;102385.84;5103811;27;45407;-73
2023/03/04 04:42:21;;;;;;;;;66.50;49.25;;;;;5.02;100.00;102399.38;5105015;27;45313;-73
2023/03/04 04:44:47;;;;;;;;;68.50;48.25;;;;;5.11;100.00;102404.34;5101627;27;45334;-73
2023/03/04 04:47:12;;;;;;;;;59.75;45.75;;;;;5.01;100.00;102386.88;5102969;27;45271;-73
2023/03/04 04:49:37;;;;;;;;;59.50;45.75;;;;;4.97;100.00;102386.13;5098851;27;47180;-74
2023/03/04 04:52:03;;;;;;;;;66.50;52.25;;;;;5.04;100.00;102408.28;5101788;27;45384;-73
2023/03/04 04:54:28;;;;;;;;;62.25;47.25;;;;;4.89;100.00;102382.06;5098653;27;45196;-73
2023/03/04 04:56:54;;;;;;;;;66.50;51.00;;;;;4.95;100.00;102417.66;5101517;27;45408;-73
2023/03/04 04:59:20;;;;;;;;;61.00;48.25;;;;;4.73;100.00;102399.88;5099497;27;46476;-73
2023/03/04 05:01:45;;;;;;;;;43.25;42.25;;;;;4.53;100.00;102388.19;5101269;27;45435;-74
2023/03/04 05:04:11;;;;;;;;;65.75;46.50;;;;;4.84;100.00;102430.75;5094639;27;45405;-73
2023/03/04 05:06:36;;;;;;;;;67.25;50.75;;;;;4.75;100.00;102436.53;5104454;27;45272;-74
2023/03/04 05:09:03;;;;;;;;;59.25;47.00;;;;;4.84;100.00;102416.41;5101489;27;45549;-75
2023/03/04 05:11:28;;;;;;;;;64.00;48.00;;;;;4.74;100.00;102401.63;5103741;27;45554;-73
2023/03/04 05:13:54;;;;;;;;;63.50;47.25;;;;;4.90;100.00;102421.50;5100275;27;45317;-74
2023/03/04 05:16:19;;;;;;;;;63.75;47.75;;;;;4.78;100.00;102403.22;5101332;27;45643;-73
2023/03/04 05:18:44;;;;;;;;;66.00;49.50;;;;;4.80;100.00;102425.56;5095413;27;46214;-73
2023/03/04 05:21:10;;;;;;;;;64.25;49.00;;;;;4.85;100.00;102437.00;5100471;27;45251;-73
2023/03/04 05:23:38;;;;;;;;;65.00;48.75;;;;;4.85;100.00;102434.31;5098104;27;45997;-73
2023/03/04 05:26:05;;;;;;;;;71.25;53.75;;;;;4.89;100.00;102434.13;5084898;27;45447;-74
2023/03/04 05:28:31;;;;;;;;;54.50;46.00;;;;;4.72;100.00;102411.59;5098516;27;46252;-73
2023/03/04 05:30:56;;;;;;;;;66.25;51.00;;;;;4.81;100.00;102432.72;5101153;27;45323;-73
2023/03/04 05:33:22;;;;;;;;;63.75;50.00;;;;;4.80;100.00;102434.53;5103559;27;45369;-74
2023/03/04 05:35:48;;;;;;;;;64.00;49.00;;;;;4.62;100.00;102405.75;5100540;27;45586;-73
2023/03/04 05:38:16;;;;;;;;;62.50;50.75;;;;;4.71;100.00;102424.16;5102363;27;46090;-73
2023/03/04 05:40:42;;;;;;;;;62.00;44.25;;;;;4.75;100.00;102424.91;5095312;27;45337;-73
2023/03/04 05:43:08;;;;;;;;;66.75;49.75;;;;;4.60;100.00;102424.66;5103838;27;45526;-73
2023/03/04 05:45:34;;;;;;;;;65.00;48.75;;;;;4.63;100.00;102404.78;5097245;27;45577;-74
2023/03/04 05:47:59;;;;;;;;;67.75;46.25;;;;;4.84;100.00;102419.97;5096422;27;46929;-74
2023/03/04 05:50:25;;;;;;;;;68.50;52.25;;;;;4.89;100.00;102427.84;5103252;27;45313;-73
2023/03/04 05:52:50;;;;;;;;;71.75;50.25;;;;;4.92;100.00;102449.25;5103917;27;45352;-74
2023/03/04 05:55:16;;;;;;;;;66.00;49.75;;;;;4.67;100.00;102425.28;5103685;27;45578;-74
2023/03/04 05:57:42;;;;;;;;;63.50;47.75;;;;;4.38;100.00;102402.38;5101536;27;46427;-74
2023/03/04 06:00:09;;;;;;;;;72.50;52.75;;;;;4.61;100.00;102434.47;5113917;27;45367;-73
2023/03/04 06:02:35;;;;;;;;;60.50;47.50;;;;;4.63;100.00;102435.28;5101956;27;45573;-72
2023/03/04 06:05:01;;;;;;;;;62.00;48.75;;;;;4.66;100.00;102429.78;5097414;27;45463;-73
2023/03/04 06:07:26;;;;;;;;;63.50;47.50;;;;;4.75;100.00;102435.69;5102228;27;46806;-73
2023/03/04 06:09:52;;;;;;;;;61.25;44.50;;;;;4.50;100.00;102417.06;5101036;27;45411;-73
2023/03/04 06:12:17;;;;;;;;;45.00;39.75;;;;;4.57;100.00;102414.03;5101595;27;45460;-74
2023/03/04 06:14:43;;;;;;;;;66.75;53.75;;;;;4.72;100.00;102454.66;5098004;27;45578;-72
2023/03/04 06:17:08;;;;;;;;;60.00;45.00;;;;;4.81;100.00;102438.97;5101129;27;45405;-71
2023/03/04 06:19:33;;;;;;;;;64.50;48.25;;;;;4.82;100.00;102439.84;5090787;27;45213;-72
2023/03/04 06:21:59;;;;;;;;;51.00;43.25;;;;;4.82;100.00;102429.06;5102174;27;45405;-71
2023/03/04 06:24:24;;;;;;;;;56.25;42.00;;;;;4.94;100.00;102433.88;5097810;27;46098;-72
2023/03/04 06:26:50;;;;;;;;;49.00;40.50;;;;;4.93;100.00;102440.22;5097454;27;45455;-72
2023/03/04 06:29:15;;;;;;;;;63.50;53.25;;;;;4.89;100.00;102462.88;5096993;27;45408;-72
2023/03/04 06:31:40;;;;;;;;;61.50;47.00;;;;;4.68;100.00;102449.41;5099964;27;45418;-72
2023/03/04 06:34:09;;;;;;;;;60.25;43.25;;;;;4.75;100.00;102449.16;5098928;27;45400;-74
2023/03/04 06:36:34;;;;;;;;;64.25;52.00;;;;;4.88;100.00;102477.28;5098927;27;46169;-72
2023/03/04 06:39:04;;;;;;;;;63.50;51.25;;;;;4.95;100.00;102467.97;5098800;27;45179;-72
2023/03/04 06:41:30;;;;;;;;;61.50;47.75;;;;;5.02;100.00;102466.72;5098017;27;45465;-73
2023/03/04 06:43:55;;;;;;;;;57.75;44.75;;;;;5.07;100.00;102462.00;5098902;27;45547;-73
2023/03/04 06:46:21;;;;;;;;;55.50;43.75;;;;;5.13;100.00;102460.81;5098740;27;45359;-72
2023/03/04 06:48:46;;;;;;;;;58.50;43.25;;;;;5.13;100.00;102467.09;5095737;27;45450;-74
2023/03/04 06:51:12;;;;;;;;;61.00;45.25;;;;;5.07;100.00;102459.31;5103225;27;45297;-74
2023/03/04 06:53:38;;;;;;;;;66.00;50.25;;;;;5.21;100.00;102472.13;5095228;27;45446;-73
2023/03/04 06:56:06;;;;;;;;;67.75;48.00;;;;;5.20;100.00;102456.91;5099043;27;46465;-72
2023/03/04 06:58:32;;;;;;;;;65.75;47.25;;;;;5.41;100.00;102478.31;5097305;27;45260;-74
2023/03/04 07:01:09;;;;;;;;;64.00;48.25;;;;;5.46;100.00;102475.41;5096377;27;45184;-72
2023/03/04 07:03:34;;;;;;;;;59.00;45.00;;;;;5.53;100.00;102476.00;5095878;27;45510;-74
2023/03/04 07:06:00;;;;;;;;;61.25;49.00;;;;;5.59;100.00;102475.69;5097889;27;45796;-71
2023/03/04 07:08:25;;;;;;;;;62.50;47.50;;;;;5.66;100.00;102486.09;5091687;27;45452;-72
2023/03/04 07:10:50;;;;;;;;;64.75;45.25;;;;;5.58;100.00;102463.16;5101607;27;45447;-72
2023/03/04 07:13:16;;;;;;;;;62.00;44.50;;;;;5.79;100.00;102483.69;5098906;27;45314;-73
2023/03/04 07:15:41;;;;;;;;;63.25;47.25;;;;;5.76;100.00;102467.66;5101348;27;47247;-72
2023/03/04 07:18:06;;;;;;;;;58.25;44.50;;;;;5.80;100.00;102493.53;5100773;27;45479;-72
2023/03/04 07:20:32;;;;;;;;;60.75;45.25;;;;;5.76;100.00;102483.84;5100302;27;45339;-72
2023/03/04 07:22:57;;;;;;;;;62.50;48.75;;;;;5.82;100.00;102467.34;5094531;27;45494;-72
2023/03/04 07:25:22;;;;;;;;;63.75;49.00;;;;;5.95;100.00;102483.81;5099974;27;46453;-72
2023/03/04 07:27:48;;;;;;;;;62.00;48.75;;;;;5.84;100.00;102487.88;5102017;27;45477;-72
2023/03/04 07:30:13;;;;;;;;;64.50;46.50;;;;;5.83;100.00;102477.19;5098534;27;45514;-72
2023/03/04 07:32:39;;;;;;;;;64.00;51.25;;;;;5.83;100.00;102478.06;5096554;27;45502;-72
2023/03/04 07:35:04;;;;;;;;;68.25;51.25;;;;;6.09;100.00;102503.78;5091255;27;46230;-72
2023/03/04 07:37:30;;;;;;;;;66.50;48.00;;;;;6.09;100.00;102498.38;5097576;27;45329;-72
2023/03/04 07:39:55;;;;;;;;;73.50;51.25;;;;;6.11;100.00;102506.41;5092617;27;45231;-72
2023/03/04 07:42:20;;;;;;;;;70.25;52.25;;;;;6.13;100.00;102493.72;5102447;27;45344;-72
2023/03/04 07:44:46;;;;;;;;;64.00;47.25;;;;;6.18;100.00;102492.53;5104367;27;46486;-74
2023/03/04 07:47:11;;;;;;;;;66.75;47.75;;;;;6.34;100.00;102486.34;5103666;27;45428;-73
2023/03/04 07:49:36;;;;;;;;;55.00;46.75;;;;;6.92;100.00;102511.16;5103230;27;45300;-72
2023/03/04 07:52:03;;;;;;;;;68.75;52.25;;;;;7.01;100.00;102472.84;5104293;27;45389;-73
2023/03/04 07:54:29;;;;;;;;;64.25;48.25;;;;;7.22;100.00;102478.91;5099948;27;45202;-73
2023/03/04 07:56:54;;;;;;;;;60.00;46.75;;;;;7.21;100.00;102488.84;5102524;27;45407;-73
2023/03/04 07:59:19;;;;;;;;;60.00;47.75;;;;;7.41;100.00;102501.25;5093984;27;45409;-73
2023/03/04 08:01:45;;;;;;;;;64.00;45.75;;;;;7.33;100.00;102484.56;5089793;27;45435;-72
2023/03/04 08:04:10;;;;;;;;;57.25;45.75;;;;;7.47;100.00;102500.03;5096155;27;46172;-72
2023/03/04 08:06:36;;;;;;;;;63.25;46.75;;;;;6.80;100.00;102461.34;5103258;27;45413;-73
2023/03/04 08:09:05;;;;;;;;;58.25;46.50;;;;;7.15;100.00;102507.22;5095774;27;45855;-73
2023/03/04 08:11:31;;;;;;;;;50.50;40.75;;;;;7.33;100.00;102525.13;5102864;27;45451;-72
2023/03/04 08:13:56;;;;;;;;;56.00;45.75;;;;;7.40;100.00;102534.66;5100240;27;48618;-73
2023/03/04 08:16:23;;;;;;;;;50.50;41.75;;;;;7.47;100.00;102529.78;5105722;27;45804;-73
2023/03/04 08:18:54;;;;;;;;;56.50;44.75;;;;;7.50;100.00;102527.78;5098946;27;45458;-73
2023/03/04 08:21:21;;;;;;;;;54.00;43.00;;;;;7.40;100.00;102537.34;5100751;27;45513;-73
2023/03/04 08:23:47;;;;;;;;;50.00;42.75;;;;;7.42;100.00;102516.53;5095730;27;47307;-73
2023/03/04 08:26:17;;;;;;;;;59.50;45.00;;;;;7.46;100.00;102519.91;5098401;27;45424;-73
2023/03/04 08:28:44;;;;;;;;;53.50;43.00;;;;;7.63;100.00;102526.13;5097118;27;45339;-74
2023/03/04 08:31:11;;;;;;;;;48.00;40.00;;;;;7.72;100.00;102508.50;5085893;27;45294;-72
2023/03/04 08:33:36;;;;;;;;;53.25;40.75;;;;;8.04;100.00;102526.47;5102320;27;46838;-72
2023/03/04 08:36:02;;;;;;;;;67.00;50.00;;;;;8.06;100.00;102518.25;5105097;27;45482;-72
2023/03/04 08:38:27;;;;;;;;;52.25;41.50;;;;;7.97;100.00;102506.13;5099624;27;45385;-72
2023/03/04 08:40:54;;;;;;;;;50.00;39.75;;;;;8.20;100.00;102531.88;5105147;27;45389;-73
2023/03/04 08:43:20;;;;;;;;;60.50;46.00;;;;;8.05;100.00;102516.50;5098734;27;47305;-73
2023/03/04 08:45:46;;;;;;;;;42.75;40.00;;;;;8.12;100.00;102531.44;5098363;27;46565;-72
2023/03/04 08:48:11;;;;;;;;;56.75;45.00;;;;;7.83;100.00;102509.63;5100795;27;45534;-71
2023/03/04 08:50:37;;;;;;;;;57.50;44.00;;;;;8.02;100.00;102511.28;5100663;27;45445;-72
2023/03/04 08:53:02;;;;;;;;;61.50;44.50;;;;;7.99;100.00;102517.75;5099396;27;46366;-72
2023/03/04 08:55:27;;;;;;;;;41.00;39.00;;;;;8.00;100.00;102513.22;5100392;27;45335;-72
2023/03/04 08:57:53;;;;;;;;;60.50;43.00;;;;;7.85;100.00;102511.38;5101127;27;45386;-72
2023/03/04 09:00:20;;;;;;;;;50.75;44.25;;;;;8.09;100.00;102526.22;5091668;27;45440;-72
2023/03/04 09:02:45;;;;;;;;;47.25;37.75;;;;;8.02;100.00;102551.91;5095943;27;46270;-72
2023/03/04 09:05:10;;;;;;;;;51.25;38.75;;;;;8.10;100.00;102530.69;5097042;27;45334;-72
2023/03/04 09:07:36;;;;;;;;;51.50;41.50;;;;;8.21;100.00;102520.94;5093693;27;45297;-72
2023/03/04 09:10:02;;;;;;;;;46.25;41.00;;;;;8.27;100.00;102533.25;5097566;27;45533;-72
2023/03/04 09:12:27;;;;;;;;;40.50;36.25;;;;;8.20;100.00;102537.28;5100506;27;45651;-72
2023/03/04 09:14:52;;;;;;;;;56.00;45.00;;;;;8.20;100.00;102523.75;5095842;27;45388;-72
2023/03/04 09:17:18;;;;;;;;;57.25;43.75;;;;;8.34;100.00;102537.38;5103053;27;45236;-73
2023/03/04 09:19:43;;;;;;;;;47.00;38.25;;;;;8.17;100.00;102532.94;5102936;27;45289;-73
2023/03/04 09:22:08;;;;;;;;;43.25;31.25;;;;;8.21;100.00;102536.31;5102857;27;45692;-72
2023/03/04 09:24:34;;;;;;;;;64.00;44.00;;;;;8.26;100.00;102539.63;5102672;27;45309;-72
2023/03/04 09:26:59;;;;;;;;;45.25;34.00;;;;;8.19;100.00;102551.78;5101897;27;45389;-73
2023/03/04 09:29:24;;;;;;;;;54.50;45.50;;;;;8.12;100.00;102534.16;5102006;27;45515;-72
2023/03/04 09:31:50;;;;;;;;;46.50;39.00;;;;;8.43;100.00;102539.53;5096266;27;47738;-72
2023/03/04 09:34:15;;;;;;;;;58.25;44.50;;;;;8.55;100.00;102548.75;5101383;27;45443;-72
2023/03/04 09:36:41;;;;;;;;;51.00;39.50;;;;;8.61;100.00;102553.84;5102316;27;45442;-72
2023/03/04 09:39:06;;;;;;;;;53.75;41.25;;;;;8.70;100.00;102536.13;5100180;27;45494;-72
2023/03/04 09:41:56;;;;;;;;;43.25;38.00;;;;;8.89;100.00;102551.22;5100398;27;46487;-71
2023/03/04 09:44:27;;;;;;;;;60.00;46.00;;;;;8.71;100.00;102533.34;5094958;27;45261;-73
2023/03/04 09:46:57;;;;;;;;;44.75;37.50;;;;;8.91;100.00;102540.28;5096326;27;45504;-72
2023/03/04 09:49:24;;;;;;;;;60.50;47.75;;;;;9.05;100.00;102558.41;5096166;27;45716;-72
2023/03/04 09:52:14;;;;;;;;;57.25;40.50;;;;;9.17;100.00;102553.09;5103776;27;45983;-72
2023/03/04 09:54:44;;;;;;;;;52.00;43.00;;;;;9.30;100.00;102556.78;5090079;27;45357;-72
2023/03/04 09:57:49;;;;;;;;;40.50;36.25;;;;;9.24;100.00;102527.31;5091292;27;45500;-72
2023/03/04 10:00:37;;;;;;;;;50.75;42.50;;;;;9.29;100.00;102556.84;5093545;27;45345;-72
2023/03/04 10:03:11;;;;;;;;;45.25;38.50;;;;;9.32;100.00;102549.41;5098488;27;47275;-72
2023/03/04 10:06:01;;;;;;;;;50.00;40.25;;;;;9.43;100.00;102550.56;5094948;27;45608;-72
2023/03/04 10:08:42;;;;;;;;;58.50;42.25;;;;;9.51;100.00;102551.81;5098061;27;45504;-73
2023/03/04 10:11:13;;;;;;;;;52.50;40.75;;;;;9.19;100.00;102525.88;5102281;27;45317;-72
2023/03/04 10:13:41;;;;;;;;;52.00;43.00;;;;;9.11;100.00;102556.19;5097737;27;46672;-72
2023/03/04 10:16:13;;;;;;;;;52.25;40.50;;;;;9.21;100.00;102549.19;5086092;27;45463;-73
2023/03/04 10:18:44;;;;;;;;;56.00;43.25;;;;;9.11;100.00;102534.50;5102292;27;45391;-71
2023/03/04 10:21:25;;;;;;;;;60.00;43.25;;;;;9.19;100.00;102553.88;5092742;27;45562;-72
2023/03/04 10:23:53;;;;;;;;;55.50;39.25;;;;;9.02;100.00;102534.19;5095109;27;46421;-72
2023/03/04 10:26:20;;;;;;;;;42.75;37.25;;;;;9.15;100.00;102543.28;5094286;27;45448;-72
2023/03/04 10:28:46;;;;;;;;;54.75;43.75;;;;;9.27;100.00;102508.16;5091830;27;45372;-72
2023/03/04 10:31:28;;;;;;;;;54.75;39.00;;;;;9.35;100.00;102511.22;5104380;27;45424;-73
2023/03/04 10:33:54;;;;;;;;;47.50;37.75;;;;;9.19;100.00;102526.75;5100374;27;45443;-73
2023/03/04 10:36:28;;;;;;;;;60.50;44.50;;;;;9.41;100.00;102530.81;5103364;27;45314;-71
2023/03/04 10:39:06;;;;;;;;;36.00;31.75;;;;;9.21;100.00;102503.09;5102266;27;45575;-72
2023/03/04 10:41:32;;;;;;;;;48.50;38.50;;;;;9.51;100.00;102507.53;5101768;27;45634;-71
2023/03/04 10:43:57;;;;;;;;;45.75;40.25;;;;;9.64;100.00;102530.22;5094078;27;45749;-72
2023/03/04 10:46:23;;;;;;;;;43.75;37.00;;;;;9.54;100.00;102519.06;5099474;27;45491;-73
2023/03/04 10:48:48;;;;;;;;;41.00;32.50;;;;;9.71;100.00;102513.44;5091405;27;45493;-72
2023/03/04 10:51:23;;;;;;;;;33.00;27.25;;;;;9.75;100.00;102522.25;5103649;27;45374;-72
2023/03/04 10:53:56;;;;;;;;;35.25;34.00;;;;;9.74;100.00;102517.78;5092557;27;46650;-72
2023/03/04 10:56:31;;;;;;;;;40.25;29.75;;;;;9.51;100.00;102504.81;5100274;27;45482;-72
2023/03/04 10:59:29;;;;;;;;;39.00;31.00;;;;;9.31;100.00;102512.41;5093797;27;45391;-73
2023/03/04 11:01:56;;;;;;;;;41.50;31.50;;;;;9.03;100.00;102479.88;5090216;27;45325;-72
2023/03/04 11:04:31;;;;;;;;;28.00;22.50;;;;;9.52;100.00;102514.72;5098446;27;45542;-72
2023/03/04 11:06:56;;;;;;;;;28.25;25.75;;;;;9.50;100.00;102492.22;5101115;27;45381;-73
2023/03/04 11:09:26;;;;;;;;;29.50;27.75;;;;;9.84;100.00;102504.47;5114519;27;45393;-72